sensor_id;sensor_type;location;lat;lon;timestamp;pressure;altitude;pressure_sealevel;temperature;humidity
35918;BME280;22011;59.912;30.300;2023-02-28T00:00:14;101151.06;;;2.14;80.41
35918;BME280;22011;59.912;30.300;2023-02-28T00:02:43;101139.59;;;2.15;80.46
35918;BME280;22011;59.912;30.300;2023-02-28T00:05:13;101143.81;;;2.18;80.65
35918;BME280;22011;59.912;30.300;2023-02-28T00:07:42;101139.59;;;2.15;80.55
35918;BME280;22011;59.912;30.300;2023-02-28T00:10:11;101143.41;;;2.24;80.73
35918;BME280;22011;59.912;30.300;2023-02-28T00:12:39;101128.69;;;2.21;80.23
35918;BME280;22011;59.912;30.300;2023-02-28T00:15:09;101135.72;;;2.21;80.42
35918;BME280;22011;59.912;30.300;2023-02-28T00:17:36;101130.38;;;2.22;80.30
35918;BME280;22011;59.912;30.300;2023-02-28T00:20:06;101129.13;;;2.28;80.24
35918;BME280;22011;59.912;30.300;2023-02-28T00:22:36;101117.25;;;2.35;80.09
35918;BME280;22011;59.912;30.300;2023-02-28T00:25:05;101113.56;;;2.38;80.15
35918;BME280;22011;59.912;30.300;2023-02-28T00:27:33;101117.03;;;2.38;79.98
35918;BME280;22011;59.912;30.300;2023-02-28T00:30:08;101112.50;;;2.40;80.03
35918;BME280;22011;59.912;30.300;2023-02-28T00:32:37;101106.63;;;2.37;79.98
35918;BME280;22011;59.912;30.300;2023-02-28T00:35:06;101111.88;;;2.37;79.88
35918;BME280;22011;59.912;30.300;2023-02-28T00:37:35;101109.97;;;2.39;80.12
35918;BME280;22011;59.912;30.300;2023-02-28T00:40:06;101116.63;;;2.44;79.66
35918;BME280;22011;59.912;30.300;2023-02-28T00:42:34;101104.94;;;2.48;79.59
35918;BME280;22011;59.912;30.300;2023-02-28T00:45:03;101115.16;;;2.53;79.52
35918;BME280;22011;59.912;30.300;2023-02-28T00:47:31;101102.41;;;2.47;79.70
35918;BME280;22011;59.912;30.300;2023-02-28T00:49:59;101100.72;;;2.46;79.26
35918;BME280;22011;59.912;30.300;2023-02-28T00:52:27;101105.78;;;2.49;79.55
35918;BME280;22011;59.912;30.300;2023-02-28T00:54:56;101096.75;;;2.53;79.67
35918;BME280;22011;59.912;30.300;2023-02-28T00:57:24;101093.59;;;2.48;79.18
35918;BME280;22011;59.912;30.300;2023-02-28T00:59:52;101090.00;;;2.49;79.52
35918;BME280;22011;59.912;30.300;2023-02-28T01:02:21;101082.13;;;2.49;79.59
35918;BME280;22011;59.912;30.300;2023-02-28T01:04:49;101079.47;;;2.49;79.46
35918;BME280;22011;59.912;30.300;2023-02-28T01:07:16;101076.13;;;2.47;79.01
35918;BME280;22011;59.912;30.300;2023-02-28T01:09:44;101079.69;;;2.46;79.29
35918;BME280;22011;59.912;30.300;2023-02-28T01:12:13;101087.47;;;2.47;79.35
35918;BME280;22011;59.912;30.300;2023-02-28T01:14:41;101071.69;;;2.47;79.13
35918;BME280;22011;59.912;30.300;2023-02-28T01:17:09;101069.81;;;2.49;79.44
35918;BME280;22011;59.912;30.300;2023-02-28T01:19:36;101061.81;;;2.51;79.00
35918;BME280;22011;59.912;30.300;2023-02-28T01:22:05;101058.34;;;2.50;79.13
35918;BME280;22011;59.912;30.300;2023-02-28T01:24:34;101056.34;;;2.54;79.16
35918;BME280;22011;59.912;30.300;2023-02-28T01:27:02;101059.19;;;2.51;78.77
35918;BME280;22011;59.912;30.300;2023-02-28T01:29:31;101044.97;;;2.53;79.08
35918;BME280;22011;59.912;30.300;2023-02-28T01:31:58;101048.56;;;2.52;78.76
35918;BME280;22011;59.912;30.300;2023-02-28T01:34:26;101051.28;;;2.51;78.69
35918;BME280;22011;59.912;30.300;2023-02-28T01:36:53;101036.25;;;2.53;78.58
35918;BME280;22011;59.912;30.300;2023-02-28T01:39:21;101033.41;;;2.56;78.80
35918;BME280;22011;59.912;30.300;2023-02-28T01:41:49;101036.88;;;2.56;78.96
35918;BME280;22011;59.912;30.300;2023-02-28T01:45:15;101035.69;;;2.73;79.41
35918;BME280;22011;59.912;30.300;2023-02-28T01:47:45;101036.53;;;2.61;78.69
35918;BME280;22011;59.912;30.300;2023-02-28T01:50:17;101041.06;;;2.59;78.72
35918;BME280;22011;59.912;30.300;2023-02-28T01:52:46;101015.72;;;2.58;78.57
35918;BME280;22011;59.912;30.300;2023-02-28T01:55:16;101022.66;;;2.59;78.70
35918;BME280;22011;59.912;30.300;2023-02-28T01:57:49;101021.59;;;2.61;78.82
35918;BME280;22011;59.912;30.300;2023-02-28T02:00:22;101016.97;;;2.65;78.74
35918;BME280;22011;59.912;30.300;2023-02-28T02:02:53;101025.69;;;2.66;78.26
35918;BME280;22011;59.912;30.300;2023-02-28T02:05:23;101027.59;;;2.63;78.37
35918;BME280;22011;59.912;30.300;2023-02-28T02:07:54;101014.34;;;2.65;78.42
35918;BME280;22011;59.912;30.300;2023-02-28T02:10:27;101017.69;;;2.67;78.34
35918;BME280;22011;59.912;30.300;2023-02-28T02:13:08;101011.28;;;2.71;78.29
35918;BME280;22011;59.912;30.300;2023-02-28T02:15:44;101010.97;;;2.63;78.82
35918;BME280;22011;59.912;30.300;2023-02-28T02:18:22;101017.19;;;2.62;78.34
35918;BME280;22011;59.912;30.300;2023-02-28T02:27:16;100999.72;;;2.61;78.80
35918;BME280;22011;59.912;30.300;2023-02-28T02:33:09;101012.13;;;2.59;78.96
35918;BME280;22011;59.912;30.300;2023-02-28T02:35:47;101008.78;;;2.57;79.16
35918;BME280;22011;59.912;30.300;2023-02-28T02:38:25;101014.03;;;2.57;78.98
35918;BME280;22011;59.912;30.300;2023-02-28T02:41:04;101019.28;;;2.57;78.56
35918;BME280;22011;59.912;30.300;2023-02-28T02:43:37;101011.09;;;2.49;78.31
35918;BME280;22011;59.912;30.300;2023-02-28T02:46:12;101005.84;;;2.49;78.76
35918;BME280;22011;59.912;30.300;2023-02-28T02:48:45;101003.31;;;2.47;78.90
35918;BME280;22011;59.912;30.300;2023-02-28T02:51:17;101006.78;;;2.48;78.78
35918;BME280;22011;59.912;30.300;2023-02-28T02:53:48;101000.78;;;2.46;78.73
35918;BME280;22011;59.912;30.300;2023-02-28T02:56:19;100996.47;;;2.45;79.13
35918;BME280;22011;59.912;30.300;2023-02-28T02:58:49;100993.84;;;2.45;78.61
35918;BME280;22011;59.912;30.300;2023-02-28T03:01:20;100989.53;;;2.44;78.53
35918;BME280;22011;59.912;30.300;2023-02-28T03:03:56;100980.72;;;2.45;78.54
35918;BME280;22011;59.912;30.300;2023-02-28T03:06:26;100977.34;;;2.43;78.91
35918;BME280;22011;59.912;30.300;2023-02-28T03:08:54;100976.59;;;2.41;78.81
35918;BME280;22011;59.912;30.300;2023-02-28T03:11:23;100975.78;;;2.40;78.63
35918;BME280;22011;59.912;30.300;2023-02-28T03:14:10;100950.28;;;2.53;78.95
35918;BME280;22011;59.912;30.300;2023-02-28T03:19:57;100959.66;;;2.45;78.93
35918;BME280;22011;59.912;30.300;2023-02-28T03:22:45;100955.75;;;2.50;78.97
35918;BME280;22011;59.912;30.300;2023-02-28T03:25:20;100953.69;;;2.43;78.75
35918;BME280;22011;59.912;30.300;2023-02-28T03:27:59;100954.50;;;2.43;79.32
35918;BME280;22011;59.912;30.300;2023-02-28T03:30:35;100980.19;;;2.40;78.93
35918;BME280;22011;59.912;30.300;2023-02-28T03:33:08;100966.31;;;2.38;78.83
35918;BME280;22011;59.912;30.300;2023-02-28T03:35:40;100964.84;;;2.34;79.02
35918;BME280;22011;59.912;30.300;2023-02-28T03:38:15;100951.59;;;2.35;78.96
35918;BME280;22011;59.912;30.300;2023-02-28T03:40:48;100955.59;;;2.28;79.30
35918;BME280;22011;59.912;30.300;2023-02-28T03:43:20;100951.16;;;2.28;79.43
35918;BME280;22011;59.912;30.300;2023-02-28T03:45:50;100968.00;;;2.26;79.44
35918;BME280;22011;59.912;30.300;2023-02-28T03:48:22;100962.00;;;2.24;79.22
35918;BME280;22011;59.912;30.300;2023-02-28T03:50:54;100952.13;;;2.27;79.63
35918;BME280;22011;59.912;30.300;2023-02-28T03:53:28;100951.38;;;2.25;79.11
35918;BME280;22011;59.912;30.300;2023-02-28T03:55:59;100936.56;;;2.24;79.55
35918;BME280;22011;59.912;30.300;2023-02-28T03:58:31;100951.59;;;2.22;79.23
35918;BME280;22011;59.912;30.300;2023-02-28T04:01:05;100947.19;;;2.23;79.16
35918;BME280;22011;59.912;30.300;2023-02-28T04:03:36;100954.97;;;2.24;79.31
35918;BME280;22011;59.912;30.300;2023-02-28T04:06:07;100953.38;;;2.22;79.00
35918;BME280;22011;59.912;30.300;2023-02-28T04:08:36;100958.75;;;2.20;79.12
35918;BME280;22011;59.912;30.300;2023-02-28T04:11:08;100939.41;;;2.21;79.37
35918;BME280;22011;59.912;30.300;2023-02-28T04:13:40;100969.28;;;2.20;79.42
35918;BME280;22011;59.912;30.300;2023-02-28T04:16:07;100968.22;;;2.23;79.48
35918;BME280;22011;59.912;30.300;2023-02-28T04:18:37;100974.72;;;2.43;79.47
35918;BME280;22011;59.912;30.300;2023-02-28T04:21:05;100963.06;;;2.21;78.82
35918;BME280;22011;59.912;30.300;2023-02-28T04:23:32;100959.19;;;2.14;79.12
35918;BME280;22011;59.912;30.300;2023-02-28T04:26:01;100955.50;;;2.17;79.81
35918;BME280;22011;59.912;30.300;2023-02-28T04:28:30;100953.91;;;2.14;79.55
35918;BME280;22011;59.912;30.300;2023-02-28T04:30:58;100964.22;;;2.17;79.43
35918;BME280;22011;59.912;30.300;2023-02-28T04:33:27;100959.91;;;2.16;79.15
35918;BME280;22011;59.912;30.300;2023-02-28T04:36:02;100961.06;;;2.25;79.39
35918;BME280;22011;59.912;30.300;2023-02-28T04:38:33;100962.44;;;2.18;79.11
35918;BME280;22011;59.912;30.300;2023-02-28T04:41:02;100967.78;;;2.16;79.49
35918;BME280;22011;59.912;30.300;2023-02-28T04:43:31;100952.25;;;2.13;79.49
35918;BME280;22011;59.912;30.300;2023-02-28T04:46:02;100942.47;;;2.15;79.38
35918;BME280;22011;59.912;30.300;2023-02-28T04:48:31;100927.00;;;2.11;79.36
35918;BME280;22011;59.912;30.300;2023-02-28T04:51:00;100931.78;;;2.06;79.42
35918;BME280;22011;59.912;30.300;2023-02-28T04:53:28;100929.47;;;2.01;79.38
35918;BME280;22011;59.912;30.300;2023-02-28T04:55:56;100945.44;;;1.98;79.40
35918;BME280;22011;59.912;30.300;2023-02-28T04:58:25;100951.66;;;1.97;79.47
35918;BME280;22011;59.912;30.300;2023-02-28T05:00:54;100946.56;;;2.19;80.40
35918;BME280;22011;59.912;30.300;2023-02-28T05:03:21;100927.25;;;1.95;79.70
35918;BME280;22011;59.912;30.300;2023-02-28T05:05:49;100934.41;;;1.93;79.63
35918;BME280;22011;59.912;30.300;2023-02-28T05:08:16;100939.47;;;1.96;80.03
35918;BME280;22011;59.912;30.300;2023-02-28T05:10:44;100933.47;;;1.94;79.47
35918;BME280;22011;59.912;30.300;2023-02-28T05:13:12;100935.25;;;1.93;79.73
35918;BME280;22011;59.912;30.300;2023-02-28T05:15:41;100947.34;;;1.96;79.92
35918;BME280;22011;59.912;30.300;2023-02-28T05:18:09;100948.19;;;1.96;79.70
35918;BME280;22011;59.912;30.300;2023-02-28T05:20:36;100942.19;;;1.94;79.74
35918;BME280;22011;59.912;30.300;2023-02-28T05:23:04;100951.03;;;1.93;79.72
35918;BME280;22011;59.912;30.300;2023-02-28T05:25:31;100946.50;;;1.95;79.76
35918;BME280;22011;59.912;30.300;2023-02-28T05:27:59;100952.28;;;2.01;80.09
35918;BME280;22011;59.912;30.300;2023-02-28T05:30:26;100935.66;;;2.00;79.76
35918;BME280;22011;59.912;30.300;2023-02-28T05:32:55;100941.44;;;2.05;79.76
35918;BME280;22011;59.912;30.300;2023-02-28T05:35:23;100943.13;;;2.06;79.83
35918;BME280;22011;59.912;30.300;2023-02-28T05:37:50;100938.72;;;2.07;79.77
35918;BME280;22011;59.912;30.300;2023-02-28T05:40:18;100944.81;;;2.07;79.54
35918;BME280;22011;59.912;30.300;2023-02-28T05:42:46;100942.88;;;2.09;79.63
35918;BME280;22011;59.912;30.300;2023-02-28T05:45:14;100947.53;;;2.06;79.67
35918;BME280;22011;59.912;30.300;2023-02-28T05:47:42;100950.66;;;2.11;80.03
35918;BME280;22011;59.912;30.300;2023-02-28T05:50:11;100959.69;;;2.19;80.11
35918;BME280;22011;59.912;30.300;2023-02-28T05:52:39;100950.44;;;2.26;79.66
35918;BME280;22011;59.912;30.300;2023-02-28T05:55:07;100962.22;;;2.34;79.30
35918;BME280;22011;59.912;30.300;2023-02-28T05:57:35;100966.63;;;2.33;79.51
35918;BME280;22011;59.912;30.300;2023-02-28T06:00:04;100977.03;;;2.35;79.42
35918;BME280;22011;59.912;30.300;2023-02-28T06:02:38;100983.25;;;2.34;79.66
35918;BME280;22011;59.912;30.300;2023-02-28T06:05:13;100985.03;;;2.33;79.38
35918;BME280;22011;59.912;30.300;2023-02-28T06:07:40;100987.03;;;2.29;79.38
35918;BME280;22011;59.912;30.300;2023-02-28T06:10:09;100995.34;;;2.23;79.25
35918;BME280;22011;59.912;30.300;2023-02-28T06:12:37;101004.28;;;2.21;79.61
35918;BME280;22011;59.912;30.300;2023-02-28T06:15:05;101001.75;;;2.19;79.91
35918;BME280;22011;59.912;30.300;2023-02-28T06:17:33;101011.34;;;2.20;79.28
35918;BME280;22011;59.912;30.300;2023-02-28T06:20:00;101018.06;;;2.24;78.96
35918;BME280;22011;59.912;30.300;2023-02-28T06:22:30;101017.84;;;2.27;78.59
35918;BME280;22011;59.912;30.300;2023-02-28T06:24:58;101015.00;;;2.30;77.98
35918;BME280;22011;59.912;30.300;2023-02-28T06:27:25;101015.84;;;2.31;77.43
35918;BME280;22011;59.912;30.300;2023-02-28T06:29:54;101015.53;;;2.36;77.10
35918;BME280;22011;59.912;30.300;2023-02-28T06:32:22;101012.78;;;2.37;76.42
35918;BME280;22011;59.912;30.300;2023-02-28T06:34:49;101019.31;;;2.44;76.28
35918;BME280;22011;59.912;30.300;2023-02-28T06:37:17;101022.03;;;2.43;75.22
35918;BME280;22011;59.912;30.300;2023-02-28T06:39:46;101030.47;;;2.48;74.87
35918;BME280;22011;59.912;30.300;2023-02-28T06:42:13;101035.72;;;2.48;73.77
35918;BME280;22011;59.912;30.300;2023-02-28T06:44:41;101040.13;;;2.47;73.01
35918;BME280;22011;59.912;30.300;2023-02-28T06:47:09;101055.59;;;2.52;72.60
35918;BME280;22011;59.912;30.300;2023-02-28T06:49:36;101067.59;;;2.56;72.09
35918;BME280;22011;59.912;30.300;2023-02-28T06:52:05;101059.28;;;2.62;70.75
35918;BME280;22011;59.912;30.300;2023-02-28T06:54:32;101073.28;;;2.62;69.49
35918;BME280;22011;59.912;30.300;2023-02-28T06:57:01;101085.16;;;2.68;69.13
35918;BME280;22011;59.912;30.300;2023-02-28T06:59:29;101103.47;;;2.70;67.88
35918;BME280;22011;59.912;30.300;2023-02-28T07:01:56;101091.16;;;2.70;62.61
35918;BME280;22011;59.912;30.300;2023-02-28T07:04:24;101091.56;;;2.77;63.31
35918;BME280;22011;59.912;30.300;2023-02-28T07:06:51;101099.47;;;2.77;63.50
35918;BME280;22011;59.912;30.300;2023-02-28T07:09:22;101124.00;;;2.77;63.76
35918;BME280;22011;59.912;30.300;2023-02-28T07:11:49;101125.34;;;2.70;61.08
35918;BME280;22011;59.912;30.300;2023-02-28T07:14:18;101128.31;;;2.78;59.45
35918;BME280;22011;59.912;30.300;2023-02-28T07:16:46;101117.88;;;2.77;58.97
35918;BME280;22011;59.912;30.300;2023-02-28T07:19:13;101135.56;;;2.75;59.76
35918;BME280;22011;59.912;30.300;2023-02-28T07:21:41;101133.16;;;2.72;59.12
35918;BME280;22011;59.912;30.300;2023-02-28T07:24:08;101118.63;;;2.66;57.17
35918;BME280;22011;59.912;30.300;2023-02-28T07:26:36;101121.56;;;2.61;57.08
35918;BME280;22011;59.912;30.300;2023-02-28T07:29:04;101121.34;;;2.65;54.71
35918;BME280;22011;59.912;30.300;2023-02-28T07:31:33;101121.03;;;2.69;53.82
35918;BME280;22011;59.912;30.300;2023-02-28T07:34:00;101127.66;;;2.75;53.85
35918;BME280;22011;59.912;30.300;2023-02-28T07:36:28;101114.81;;;2.83;53.43
35918;BME280;22011;59.912;30.300;2023-02-28T07:38:56;101122.81;;;2.81;54.74
35918;BME280;22011;59.912;30.300;2023-02-28T07:41:24;101117.78;;;2.78;54.46
35918;BME280;22011;59.912;30.300;2023-02-28T07:43:53;101120.50;;;2.77;53.62
35918;BME280;22011;59.912;30.300;2023-02-28T07:46:21;101109.78;;;2.67;53.01
35918;BME280;22011;59.912;30.300;2023-02-28T07:48:50;101118.84;;;2.63;52.53
35918;BME280;22011;59.912;30.300;2023-02-28T07:51:19;101110.41;;;2.83;55.11
35918;BME280;22011;59.912;30.300;2023-02-28T07:53:46;101119.25;;;2.57;52.26
35918;BME280;22011;59.912;30.300;2023-02-28T07:56:14;101116.63;;;2.57;51.11
35918;BME280;22011;59.912;30.300;2023-02-28T07:58:41;101124.41;;;2.58;52.15
35918;BME280;22011;59.912;30.300;2023-02-28T08:01:10;101129.88;;;2.55;51.25
35918;BME280;22011;59.912;30.300;2023-02-28T08:03:38;101113.34;;;2.53;50.24
35918;BME280;22011;59.912;30.300;2023-02-28T08:06:14;101123.66;;;2.56;50.58
35918;BME280;22011;59.912;30.300;2023-02-28T08:08:42;101116.72;;;2.55;49.81
35918;BME280;22011;59.912;30.300;2023-02-28T08:11:10;101124.63;;;2.55;49.17
35918;BME280;22011;59.912;30.300;2023-02-28T08:13:37;101120.19;;;2.56;48.49
35918;BME280;22011;59.912;30.300;2023-02-28T08:16:06;101117.78;;;2.53;49.20
35918;BME280;22011;59.912;30.300;2023-02-28T08:18:33;101127.03;;;2.58;48.06
35918;BME280;22011;59.912;30.300;2023-02-28T08:21:05;101132.72;;;2.65;48.61
35918;BME280;22011;59.912;30.300;2023-02-28T08:23:34;101123.03;;;2.53;47.63
35918;BME280;22011;59.912;30.300;2023-02-28T08:26:02;101139.03;;;2.50;47.98
35918;BME280;22011;59.912;30.300;2023-02-28T08:28:30;101150.81;;;2.44;48.50
35918;BME280;22011;59.912;30.300;2023-02-28T08:30:58;101148.91;;;2.46;47.87
35918;BME280;22011;59.912;30.300;2023-02-28T08:33:27;101141.66;;;2.50;49.39
35918;BME280;22011;59.912;30.300;2023-02-28T08:35:55;101141.25;;;2.56;49.15
35918;BME280;22011;59.912;30.300;2023-02-28T08:38:23;101146.50;;;2.69;48.51
35918;BME280;22011;59.912;30.300;2023-02-28T08:40:57;101159.47;;;2.84;48.26
35918;BME280;22011;59.912;30.300;2023-02-28T08:43:24;101147.44;;;2.80;47.51
35918;BME280;22011;59.912;30.300;2023-02-28T08:45:52;101156.81;;;2.84;47.65
35918;BME280;22011;59.912;30.300;2023-02-28T08:48:20;101158.19;;;2.77;46.47
35918;BME280;22011;59.912;30.300;2023-02-28T08:50:55;101151.78;;;2.81;46.90
35918;BME280;22011;59.912;30.300;2023-02-28T08:53:23;101166.50;;;2.71;47.05
35918;BME280;22011;59.912;30.300;2023-02-28T08:55:59;101159.66;;;2.81;46.81
35918;BME280;22011;59.912;30.300;2023-02-28T08:58:27;101158.81;;;2.68;46.22
35918;BME280;22011;59.912;30.300;2023-02-28T09:00:55;101159.56;;;2.70;47.66
35918;BME280;22011;59.912;30.300;2023-02-28T09:03:23;101165.25;;;2.77;47.85
35918;BME280;22011;59.912;30.300;2023-02-28T09:05:54;101169.13;;;2.84;48.00
35918;BME280;22011;59.912;30.300;2023-02-28T09:08:23;101185.34;;;2.90;48.01
35918;BME280;22011;59.912;30.300;2023-02-28T09:10:51;101186.09;;;2.92;46.52
35918;BME280;22011;59.912;30.300;2023-02-28T09:13:20;101179.44;;;3.00;47.01
35918;BME280;22011;59.912;30.300;2023-02-28T09:15:48;101188.50;;;2.95;47.17
35918;BME280;22011;59.912;30.300;2023-02-28T09:18:16;101187.25;;;3.01;46.68
35918;BME280;22011;59.912;30.300;2023-02-28T09:20:44;101184.09;;;2.96;46.02
35918;BME280;22011;59.912;30.300;2023-02-28T09:23:12;101170.63;;;2.88;47.20
35918;BME280;22011;59.912;30.300;2023-02-28T09:25:45;101176.28;;;2.94;47.42
35918;BME280;22011;59.912;30.300;2023-02-28T09:28:13;101179.34;;;2.88;45.77
35918;BME280;22011;59.912;30.300;2023-02-28T09:30:47;101179.44;;;3.00;46.80
35918;BME280;22011;59.912;30.300;2023-02-28T09:33:15;101174.19;;;3.00;49.53
35918;BME280;22011;59.912;30.300;2023-02-28T09:35:43;101175.66;;;3.04;51.58
35918;BME280;22011;59.912;30.300;2023-02-28T09:38:10;101166.59;;;3.08;52.24
35918;BME280;22011;59.912;30.300;2023-02-28T09:40:47;101176.25;;;3.20;54.42
35918;BME280;22011;59.912;30.300;2023-02-28T09:43:16;101178.34;;;3.15;55.23
35918;BME280;22011;59.912;30.300;2023-02-28T09:45:48;101175.81;;;3.26;55.84
35918;BME280;22011;59.912;30.300;2023-02-28T09:48:21;101173.06;;;3.27;56.53
35918;BME280;22011;59.912;30.300;2023-02-28T09:50:52;101173.38;;;3.36;55.49
35918;BME280;22011;59.912;30.300;2023-02-28T09:53:27;101169.47;;;3.41;55.14
35918;BME280;22011;59.912;30.300;2023-02-28T09:56:03;101164.81;;;3.45;55.69
35918;BME280;22011;59.912;30.300;2023-02-28T09:58:38;101164.69;;;3.46;53.53
35918;BME280;22011;59.912;30.300;2023-02-28T10:01:19;101162.47;;;3.53;48.01
35918;BME280;22011;59.912;30.300;2023-02-28T10:03:51;101168.06;;;3.48;45.32
35918;BME280;22011;59.912;30.300;2023-02-28T10:06:26;101185.44;;;3.51;45.49
35918;BME280;22011;59.912;30.300;2023-02-28T10:09:00;101191.78;;;3.48;45.13
35918;BME280;22011;59.912;30.300;2023-02-28T10:11:29;101188.13;;;3.38;42.91
35918;BME280;22011;59.912;30.300;2023-02-28T10:14:02;101193.06;;;3.43;42.14
35918;BME280;22011;59.912;30.300;2023-02-28T10:16:35;101179.34;;;3.50;43.58
35918;BME280;22011;59.912;30.300;2023-02-28T10:19:11;101192.28;;;3.53;41.77
35918;BME280;22011;59.912;30.300;2023-02-28T10:21:46;101205.69;;;3.50;40.06
35918;BME280;22011;59.912;30.300;2023-02-28T10:24:20;101200.41;;;3.50;38.96
35918;BME280;22011;59.912;30.300;2023-02-28T10:26:52;101194.75;;;3.44;39.05
35918;BME280;22011;59.912;30.300;2023-02-28T10:29:24;101198.25;;;3.32;37.06
35918;BME280;22011;59.912;30.300;2023-02-28T10:31:53;101196.44;;;3.32;37.35
35918;BME280;22011;59.912;30.300;2023-02-28T10:34:20;101198.16;;;3.20;37.94
35918;BME280;22011;59.912;30.300;2023-02-28T10:36:49;101216.47;;;3.22;37.60
35918;BME280;22011;59.912;30.300;2023-02-28T10:39:37;101213.94;;;3.33;38.37
35918;BME280;22011;59.912;30.300;2023-02-28T10:42:05;101210.69;;;3.17;36.55
35918;BME280;22011;59.912;30.300;2023-02-28T10:44:45;101211.59;;;3.41;40.54
35918;BME280;22011;59.912;30.300;2023-02-28T10:47:16;101222.47;;;3.24;37.79
35918;BME280;22011;59.912;30.300;2023-02-28T10:49:48;101212.88;;;3.23;36.06
35918;BME280;22011;59.912;30.300;2023-02-28T10:52:33;101213.50;;;3.39;38.01
35918;BME280;22011;59.912;30.300;2023-02-28T10:55:19;101214.97;;;3.43;38.65
35918;BME280;22011;59.912;30.300;2023-02-28T10:57:48;101202.56;;;3.33;37.90
35918;BME280;22011;59.912;30.300;2023-02-28T11:00:17;101214.56;;;3.37;37.79
35918;BME280;22011;59.912;30.300;2023-02-28T11:02:48;101213.09;;;3.33;38.34
35918;BME280;22011;59.912;30.300;2023-02-28T11:05:29;101208.66;;;3.46;38.06
35918;BME280;22011;59.912;30.300;2023-02-28T11:08:04;101208.44;;;3.36;38.13
35918;BME280;22011;59.912;30.300;2023-02-28T11:10:33;101210.03;;;3.26;38.27
35918;BME280;22011;59.912;30.300;2023-02-28T11:13:01;101202.88;;;3.28;36.20
35918;BME280;22011;59.912;30.300;2023-02-28T11:15:31;101215.19;;;3.27;36.19
35918;BME280;22011;59.912;30.300;2023-02-28T11:18:02;101218.47;;;3.31;35.88
35918;BME280;22011;59.912;30.300;2023-02-28T11:20:33;101211.09;;;3.36;35.09
35918;BME280;22011;59.912;30.300;2023-02-28T11:23:03;101212.66;;;3.39;32.80
35918;BME280;22011;59.912;30.300;2023-02-28T11:25:33;101211.09;;;3.36;33.57
35918;BME280;22011;59.912;30.300;2023-02-28T11:28:03;101199.72;;;3.23;33.04
35918;BME280;22011;59.912;30.300;2023-02-28T11:30:35;101213.72;;;3.23;31.38
35918;BME280;22011;59.912;30.300;2023-02-28T11:33:21;101211.19;;;3.35;33.11
35918;BME280;22011;59.912;30.300;2023-02-28T11:35:51;101209.53;;;3.21;31.47
35918;BME280;22011;59.912;30.300;2023-02-28T11:38:18;101220.47;;;3.15;32.01
35918;BME280;22011;59.912;30.300;2023-02-28T11:40:49;101216.16;;;3.14;32.51
35918;BME280;22011;59.912;30.300;2023-02-28T11:43:30;101214.47;;;3.13;33.29
35918;BME280;22011;59.912;30.300;2023-02-28T11:46:07;101219.03;;;3.11;33.78
35918;BME280;22011;59.912;30.300;2023-02-28T11:48:45;101216.63;;;3.08;33.74
35918;BME280;22011;59.912;30.300;2023-02-28T11:51:21;101224.41;;;3.09;32.75
35918;BME280;22011;59.912;30.300;2023-02-28T11:54:03;101215.84;;;3.18;32.39
35918;BME280;22011;59.912;30.300;2023-02-28T11:56:37;101204.78;;;3.13;33.88
35918;BME280;22011;59.912;30.300;2023-02-28T11:59:30;101205.63;;;3.26;33.49
35918;BME280;22011;59.912;30.300;2023-02-28T12:02:25;101213.19;;;3.31;34.42
35918;BME280;22011;59.912;30.300;2023-02-28T12:05:08;101216.47;;;3.22;34.03
35918;BME280;22011;59.912;30.300;2023-02-28T12:07:46;101224.91;;;3.14;34.35
35918;BME280;22011;59.912;30.300;2023-02-28T12:10:21;101214.38;;;3.14;33.93
35918;BME280;22011;59.912;30.300;2023-02-28T12:12:58;101210.91;;;3.14;34.70
35918;BME280;22011;59.912;30.300;2023-02-28T12:15:54;101220.69;;;3.24;34.21
35918;BME280;22011;59.912;30.300;2023-02-28T12:18:42;101221.94;;;3.19;34.21
35918;BME280;22011;59.912;30.300;2023-02-28T12:21:24;101237.97;;;3.16;34.18
35918;BME280;22011;59.912;30.300;2023-02-28T12:24:06;101235.53;;;3.13;34.34
35918;BME280;22011;59.912;30.300;2023-02-28T12:26:41;101236.53;;;3.12;32.88
35918;BME280;22011;59.912;30.300;2023-02-28T12:29:14;101243.44;;;3.13;33.60
35918;BME280;22011;59.912;30.300;2023-02-28T12:31:49;101234.19;;;3.07;31.99
35918;BME280;22011;59.912;30.300;2023-02-28T12:34:20;101231.88;;;3.03;33.12
35918;BME280;22011;59.912;30.300;2023-02-28T12:36:52;101239.78;;;3.03;31.57
35918;BME280;22011;59.912;30.300;2023-02-28T12:39:24;101246.84;;;3.02;31.72
35918;BME280;22011;59.912;30.300;2023-02-28T12:41:54;101231.47;;;2.96;32.48
35918;BME280;22011;59.912;30.300;2023-02-28T12:44:27;101222.31;;;3.02;31.59
35918;BME280;22011;59.912;30.300;2023-02-28T12:46:58;101228.31;;;3.04;31.70
35918;BME280;22011;59.912;30.300;2023-02-28T12:49:30;101230.09;;;3.03;31.90
35918;BME280;22011;59.912;30.300;2023-02-28T12:52:01;101233.78;;;3.01;33.17
35918;BME280;22011;59.912;30.300;2023-02-28T12:54:34;101238.63;;;3.07;33.07
35918;BME280;22011;59.912;30.300;2023-02-28T12:57:08;101226.50;;;3.04;32.71
35918;BME280;22011;59.912;30.300;2023-02-28T12:59:41;101243.25;;;3.03;34.72
35918;BME280;22011;59.912;30.300;2023-02-28T13:02:42;101233.88;;;3.12;33.39
35918;BME280;22011;59.912;30.300;2023-02-28T13:05:32;101246.41;;;3.08;35.01
35918;BME280;22011;59.912;30.300;2023-02-28T13:08:20;101234.69;;;3.12;34.34
35918;BME280;22011;59.912;30.300;2023-02-28T13:10:53;101234.63;;;3.01;34.43
35918;BME280;22011;59.912;30.300;2023-02-28T13:13:23;101239.38;;;3.09;34.65
35918;BME280;22011;59.912;30.300;2023-02-28T13:16:00;101235.13;;;3.19;34.55
35918;BME280;22011;59.912;30.300;2023-02-28T13:18:36;101245.47;;;3.09;34.51
35918;BME280;22011;59.912;30.300;2023-02-28T13:21:06;101224.72;;;2.92;33.50
35918;BME280;22011;59.912;30.300;2023-02-28T13:23:55;101243.56;;;2.99;33.42